Flight Track Log - Related Links

Times and Time Zones

All times are in EDT time to prevent confusion due to time zone crossing. See the N3117S flight status page for this flight to view local times or setup timezone preferences in your user account.

Time Position Orientation Groundspeed Altitude Reporting Facility
EDT Latitude Longitude Course Direction KTS MPH feet Rate Location/Type
Wed 10:34:24 AM 39.1167 -119.7500 North 145 167 8,800  Level Northern Cal TRACON
Wed 10:35:14 AM 39.1486 -119.7458 North 137 158 9,600 1,189 Climbing Oakland Center
Wed 10:36:15 AM 39.1661 -119.6967 65° Northeast 160 184 11,000 1,082 Climbing Oakland Center
Wed 10:37:16 AM 39.1364 -119.6494 129° Southeast 171 197 11,800 836 Climbing Oakland Center
Wed 10:38:17 AM 39.0992 -119.6000 134° Southeast 184 212 12,700 927 Climbing Oakland Center
Wed 10:39:19 AM 39.0622 -119.5519 135° Southeast 187 215 13,700 927 Climbing Oakland Center
Wed 10:40:20 AM 39.0261 -119.5061 135° Southeast 185 213 14,600 804 Climbing Oakland Center
Wed 10:45:47 AM 38.8250 -119.2440 135° Southeast 194 223 18,900 719 Climbing FlightAware ADS-B
Wed 10:46:27 AM 38.8020 -119.2130 134° Southeast 195 224 19,000 75 Climbing FlightAware ADS-B
Wed 10:47:07 AM 38.7800 -119.1850 135° Southeast 195 224 19,000  Level FlightAware ADS-B
Wed 10:47:47 AM 38.7590 -119.1570 134° Southeast 195 224 19,000  Level FlightAware ADS-B
Wed 10:48:27 AM 38.7380 -119.1280 133° Southeast 195 224 19,000  Level FlightAware ADS-B
Wed 10:49:07 AM 38.7160 -119.1000 135° Southeast 195 224 19,000  Level FlightAware ADS-B
Wed 10:49:57 AM 38.6900 -119.0650 134° Southeast 195 224 19,000 1,923 Level FlightAware ADS-B
Wed 10:50:25 AM 38.6469 -119.0122 134° Southeast 204 235 21,500 2,067 Climbing Los Angeles Center
Wed 10:51:27 AM 38.6064 -118.9625 136° Southeast 204 235 22,100 629 Climbing Los Angeles Center
Wed 10:52:29 AM 38.5589 -118.9008 135° Southeast 203 234 22,800 651 Climbing Los Angeles Center
Wed 10:53:36 AM 38.5169 -118.8500 137° Southeast 212 244 23,500 703 Climbing Oakland Center
Wed 10:54:37 AM 38.4667 -118.7869 136° Southeast 213 245 24,300 683 Climbing Oakland Center
Wed 10:55:39 AM 38.4233 -118.7319 135° Southeast 219 252 24,900 341 Climbing Oakland Center
Wed 10:56:40 AM 38.3769 -118.6739 136° Southeast 230 265 25,000 49 Climbing Oakland Center
Wed 10:57:41 AM 38.3264 -118.6119 136° Southeast 248 285 25,000  Level Oakland Center
Wed 10:58:42 AM 38.2756 -118.5469 135° Southeast 256 295 25,000  Level Oakland Center
Wed 10:59:44 AM 38.2236 -118.4819 135° Southeast 262 302 25,000  Level Oakland Center
Wed 11:00:45 AM 38.1728 -118.4186 136° Southeast 257 296 25,000  Level Oakland Center
Wed 11:01:46 AM 38.1192 -118.3511 135° Southeast 258 297 25,000  Level Oakland Center
Wed 11:02:47 AM 38.0683 -118.2878 136° Southeast 256 295 25,000  Level Oakland Center
Wed 11:03:48 AM 38.0172 -118.2233 135° Southeast 258 297 25,000  Level Oakland Center
Wed 11:04:50 AM 37.9647 -118.1594 136° Southeast 261 300 25,000  Level Oakland Center
Wed 11:05:51 AM 37.9144 -118.0975 136° Southeast 255 293 25,000  Level Oakland Center
Wed 11:06:52 AM 37.8533 -118.0222 136° Southeast 256 295 25,000  Level Oakland Center
Wed 11:07:53 AM 37.8033 -117.9586 135° Southeast 255 293 25,000  Level Oakland Center
Wed 11:08:55 AM 37.7522 -117.8983 137° Southeast 253 291 25,000  Level Oakland Center
Wed 11:09:56 AM 37.7022 -117.8353 135° Southeast 255 293 25,000  Level Oakland Center
Wed 11:10:57 AM 37.6508 -117.7731 136° Southeast 256 295 25,000  Level Oakland Center
Wed 11:11:58 AM 37.5989 -117.7108 136° Southeast 258 297 25,000  Level Oakland Center
Wed 11:13:00 AM 37.5472 -117.6458 135° Southeast 262 302 25,000  Level Oakland Center
Wed 11:14:01 AM 37.4947 -117.5833 137° Southeast 261 300 25,000  Level Oakland Center
Wed 11:15:02 AM 37.4425 -117.5192 136° Southeast 263 303 25,000  Level Oakland Center
Wed 11:16:03 AM 37.3908 -117.4572 136° Southeast 259 298 25,000  Level Oakland Center
Wed 11:17:04 AM 37.3269 -117.3794 136° Southeast 264 304 25,000  Level Oakland Center
Wed 11:18:05 AM 37.2756 -117.3158 135° Southeast 262 302 25,000  Level Oakland Center
Wed 11:19:07 AM 37.2228 -117.2536 137° Southeast 261 300 25,000  Level Oakland Center
Wed 11:20:08 AM 37.1689 -117.1889 136° Southeast 264 304 25,000  Level Oakland Center
Wed 11:21:09 AM 37.1161 -117.1242 136° Southeast 265 305 25,000  Level Oakland Center
Wed 11:22:10 AM 37.0619 -117.0611 137° Southeast 266 306 25,000  Level Oakland Center
Wed 11:23:11 AM 37.0081 -116.9958 136° Southeast 267 307 25,000  Level Oakland Center
Wed 11:24:12 AM 36.9547 -116.9317 136° Southeast 267 307 25,000  Level Oakland Center
Wed 11:25:44 AM 36.8681 -116.8275 136° Southeast 267 307 25,000  Level Los Angeles Center
Wed 11:26:46 AM 36.8150 -116.7639 136° Southeast 265 305 25,000  Level Los Angeles Center
Wed 11:27:48 AM 36.7767 -116.6858 121° Southeast 264 304 25,000  Level Los Angeles Center
Wed 11:28:49 AM 36.7419 -116.6064 119° Southeast 262 302 25,000  Level Los Angeles Center
Wed 11:29:51 AM 36.7083 -116.5233 117° Southeast 266 306 25,000  Level Los Angeles Center
Wed 11:35:52 AM 36.4930 -116.0170 117° Southeast 270 311 25,000  Level FlightAware ADS-B
Wed 11:36:37 AM 36.4680 -115.9590 118° Southeast 269 310 25,000  Level FlightAware ADS-B
Wed 11:37:32 AM 36.4380 -115.8870 117° Southeast 270 311 25,000  Level FlightAware ADS-B
Wed 11:38:12 AM 36.4120 -115.8250 118° Southeast 271 312 25,000  Level FlightAware ADS-B
Wed 11:38:57 AM 36.3860 -115.7660 119° Southeast 271 312 25,000  Level FlightAware ADS-B
Wed 11:39:37 AM 36.3630 -115.7100 117° Southeast 271 312 25,000  Level FlightAware ADS-B
Wed 11:40:22 AM 36.3360 -115.6480 118° Southeast 270 311 25,000  Level FlightAware ADS-B
Wed 11:41:02 AM 36.3120 -115.5930 118° Southeast 271 312 25,000  Level FlightAware ADS-B
Wed 11:41:42 AM 36.2890 -115.5380 117° Southeast 270 311 25,000  Level FlightAware ADS-B
Wed 11:42:27 AM 36.2630 -115.4790 119° Southeast 270 311 25,000  Level FlightAware ADS-B
Wed 11:43:07 AM 36.2390 -115.4230 118° Southeast 272 313 25,000  Level FlightAware ADS-B
Wed 11:43:52 AM 36.2120 -115.3600 118° Southeast 273 314 25,000  Level FlightAware ADS-B
Wed 11:44:32 AM 36.1880 -115.3050 118° Southeast 272 313 25,000  Level FlightAware ADS-B
Wed 11:45:12 AM 36.1650 -115.2520 118° Southeast 273 314 25,000  Level FlightAware ADS-B
Wed 11:45:57 AM 36.1380 -115.1890 118° Southeast 273 314 25,000  Level FlightAware ADS-B
Wed 11:46:37 AM 36.1130 -115.1330 119° Southeast 274 315 25,000  Level FlightAware ADS-B
Wed 11:47:22 AM 36.0860 -115.0700 118° Southeast 276 318 25,000  Level FlightAware ADS-B
Wed 11:48:02 AM 36.0620 -115.0150 118° Southeast 275 316 25,000  Level FlightAware ADS-B
Wed 11:48:42 AM 36.0370 -114.9590 119° Southeast 276 318 25,000  Level FlightAware ADS-B
Wed 11:49:27 AM 36.0110 -114.8980 118° Southeast 276 318 25,000  Level FlightAware ADS-B
Wed 11:50:07 AM 35.9860 -114.8420 119° Southeast 279 321 25,000  Level FlightAware ADS-B
Wed 11:50:47 AM 35.9570 -114.7900 125° Southeast 279 321 25,000  Level FlightAware ADS-B
Wed 11:51:32 AM 35.9250 -114.7280 122° Southeast 280 322 25,000  Level FlightAware ADS-B
Wed 11:52:02 AM 35.9030 -114.6880 124° Southeast 282 325 25,000  Level FlightAware ADS-B
Wed 11:52:42 AM 35.8750 -114.6340 123° Southeast 283 326 25,000  Level FlightAware ADS-B
Wed 11:53:22 AM 35.8470 -114.5800 123° Southeast 285 328 25,000  Level FlightAware ADS-B
Wed 11:54:07 AM 35.8140 -114.5190 124° Southeast 284 327 25,000  Level FlightAware ADS-B
Wed 11:54:47 AM 35.7860 -114.4660 123° Southeast 284 327 25,000  Level FlightAware ADS-B
Wed 11:55:32 AM 35.7530 -114.4030 123° Southeast 285 328 25,000  Level FlightAware ADS-B
Wed 11:56:12 AM 35.7240 -114.3490 123° Southeast 284 327 25,000  Level FlightAware ADS-B
Wed 11:56:52 AM 35.6950 -114.2950 123° Southeast 286 329 25,000  Level FlightAware ADS-B
Wed 11:57:37 AM 35.6630 -114.2350 123° Southeast 286 329 25,000  Level FlightAware ADS-B
Wed 11:58:17 AM 35.6340 -114.1790 122° Southeast 287 330 25,000  Level FlightAware ADS-B
Wed 11:58:57 AM 35.6050 -114.1260 124° Southeast 286 329 25,000  Level FlightAware ADS-B
Wed 11:59:42 AM 35.5720 -114.0650 124° Southeast 286 329 25,000  Level FlightAware ADS-B
Wed 12:00:22 PM 35.5420 -114.0100 124° Southeast 288 331 25,000  Level FlightAware ADS-B
Wed 12:01:07 PM 35.5090 -113.9480 123° Southeast 287 330 25,000  Level FlightAware ADS-B
Wed 12:01:47 PM 35.4810 -113.8960 123° Southeast 288 331 25,000  Level FlightAware ADS-B
Wed 12:02:32 PM 35.4470 -113.8330 124° Southeast 288 331 25,000  Level FlightAware ADS-B
Wed 12:03:12 PM 35.4180 -113.7780 123° Southeast 290 334 25,000  Level FlightAware ADS-B
Wed 12:03:52 PM 35.3870 -113.7220 124° Southeast 290 334 25,000  Level FlightAware ADS-B
Wed 12:04:37 PM 35.3540 -113.6610 124° Southeast 291 335 25,000  Level FlightAware ADS-B
Wed 12:05:17 PM 35.3240 -113.6050 123° Southeast 292 336 25,000  Level FlightAware ADS-B
Wed 12:06:02 PM 35.2910 -113.5450 124° Southeast 290 334 25,000  Level FlightAware ADS-B
Wed 12:06:42 PM 35.2610 -113.4910 124° Southeast 290 334 25,000  Level FlightAware ADS-B
Wed 12:07:27 PM 35.2280 -113.4290 123° Southeast 290 334 25,000  Level FlightAware ADS-B
Wed 12:08:07 PM 35.1970 -113.3740 125° Southeast 291 335 25,000  Level FlightAware ADS-B
Wed 12:08:47 PM 35.1670 -113.3180 123° Southeast 291 335 25,000  Level FlightAware ADS-B
Wed 12:09:32 PM 35.1340 -113.2580 124° Southeast 292 336 25,000  Level FlightAware ADS-B
Wed 12:10:12 PM 35.1030 -113.2020 124° Southeast 292 336 25,000  Level FlightAware ADS-B
Wed 12:10:52 PM 35.0730 -113.1480 124° Southeast 292 336 25,000  Level FlightAware ADS-B
Wed 12:11:32 PM 35.0430 -113.0930 124° Southeast 294 338 25,000  Level FlightAware ADS-B
Wed 12:12:17 PM 35.0080 -113.0300 124° Southeast 294 338 25,000  Level FlightAware ADS-B
Wed 12:12:57 PM 34.9790 -112.9770 124° Southeast 293 337 25,000  Level FlightAware ADS-B
Wed 12:13:42 PM 34.9440 -112.9140 124° Southeast 293 337 25,000  Level FlightAware ADS-B
Wed 12:14:22 PM 34.9140 -112.8600 124° Southeast 293 337 25,000  Level FlightAware ADS-B
Wed 12:15:07 PM 34.8790 -112.7970 124° Southeast 293 337 25,000  Level FlightAware ADS-B
Wed 12:15:47 PM 34.8480 -112.7420 124° Southeast 293 337 25,000  Level FlightAware ADS-B
Wed 12:16:27 PM 34.8190 -112.6880 123° Southeast 293 337 25,000  Level FlightAware ADS-B
Wed 12:17:12 PM 34.7840 -112.6270 125° Southeast 293 337 25,000 -141 Level FlightAware ADS-B
Wed 12:17:52 PM 34.7540 -112.5740 125° Southeast 291 335 24,800 -424 Descending FlightAware ADS-B
Wed 12:18:37 PM 34.7190 -112.5110 124° Southeast 291 335 24,400 -500 Descending FlightAware ADS-B
Wed 12:18:52 PM 34.7060 -112.4950 135° Southeast 283 326 24,300 -436 Descending FlightAware ADS-B
Wed 12:19:32 PM 34.6670 -112.4510 137° Southeast 281 323 24,000 -675 Descending FlightAware ADS-B
Wed 12:20:12 PM 34.6300 -112.4100 138° Southeast 273 314 23,400 -1,200 Descending FlightAware ADS-B
Wed 12:20:57 PM 34.5880 -112.3620 137° Southeast 269 310 22,300 -1,482 Descending FlightAware ADS-B
Wed 12:21:37 PM 34.5520 -112.3210 137° Southeast 268 308 21,300 -1,553 Descending FlightAware ADS-B
Wed 12:22:22 PM 34.5120 -112.2750 137° Southeast 266 306 20,100 -1,553 Descending FlightAware ADS-B
Wed 12:23:02 PM 34.4770 -112.2360 137° Southeast 261 300 19,100 -1,575 Descending FlightAware ADS-B
Wed 12:23:42 PM 34.4420 -112.1960 137° Southeast 254 292 18,000 -1,624 Descending FlightAware ADS-B
Wed 12:24:27 PM 34.4030 -112.1510 136° Southeast 249 287 16,800 -1,624 Descending FlightAware ADS-B
Wed 12:25:07 PM 34.3690 -112.1130 137° Southeast 243 280 15,700 -1,553 Descending FlightAware ADS-B
Wed 12:25:52 PM 34.3340 -112.0740 137° Southeast 238 274 14,600 -1,482 Descending FlightAware ADS-B
Wed 12:26:32 PM 34.3020 -112.0370 136° Southeast 232 267 13,600 -1,350 Descending FlightAware ADS-B
Wed 12:27:12 PM 34.2710 -112.0020 137° Southeast 227 261 12,800 -1,271 Descending FlightAware ADS-B
Wed 12:27:57 PM 34.2350 -111.9630 138° Southeast 222 255 11,800 -1,129 Descending FlightAware ADS-B
Wed 12:28:37 PM 34.2070 -111.9310 137° Southeast 207 238 11,200 -764 Descending FlightAware ADS-B
Wed 12:28:52 PM 34.1940 -111.9250 159° South 195 224 11,100 -327 Descending FlightAware ADS-B
Wed 12:29:32 PM 34.1600 -111.9250 180° South 173 199 10,900 -141 Descending FlightAware ADS-B
Wed 12:30:17 PM 34.1260 -111.9270 183° South 171 197 10,900  Level FlightAware ADS-B
Wed 12:30:57 PM 34.0930 -111.9290 183° South 181 208 10,900 -212 Level FlightAware ADS-B
Wed 12:31:42 PM 34.0550 -111.9310 182° South 191 220 10,600 -706 Descending FlightAware ADS-B
Wed 12:32:22 PM 34.0190 -111.9340 184° South 194 223 9,900 -1,029 Descending FlightAware ADS-B
Wed 12:32:52 PM 33.9930 -111.9350 182° South 198 228 9,400 -1,200 Descending FlightAware ADS-B
Wed 12:33:17 PM 33.9660 -111.9370 184° South 201 231 8,800 -1,091 Descending FlightAware ADS-B
Wed 12:33:47 PM 33.9400 -111.9380 182° South 197 227 8,400 -764 Descending FlightAware ADS-B
Wed 12:34:12 PM 33.9170 -111.9400 184° South 188 216 8,100 -545 Descending FlightAware ADS-B
Wed 12:34:42 PM 33.8920 -111.9410 182° South 179 206 7,900 -400 Descending FlightAware ADS-B
Wed 12:34:57 PM 33.8790 -111.9440 191° South 176 203 7,800 -800 Descending FlightAware ADS-B
Wed 12:35:12 PM 33.8670 -111.9480 195° South 180 207 7,500 -900 Descending FlightAware ADS-B
Wed 12:35:37 PM 33.8490 -111.9570 203° Southwest 185 213 7,200 -900 Descending FlightAware ADS-B
Wed 12:35:52 PM 33.8360 -111.9630 201° Southwest 186 214 6,900 -1,050 Descending FlightAware ADS-B
Wed 12:36:17 PM 33.8150 -111.9730 202° Southwest 186 214 6,500 -900 Descending FlightAware ADS-B
Wed 12:36:32 PM 33.8040 -111.9780 201° Southwest 183 211 6,300 -667 Descending FlightAware ADS-B
Wed 12:37:02 PM 33.7800 -111.9890 201° Southwest 176 203 6,000 -436 Descending FlightAware ADS-B
Wed 12:37:27 PM 33.7610 -111.9980 201° Southwest 169 194 5,900 -109 Descending FlightAware ADS-B
Wed 12:37:57 PM 33.7400 -112.0080 202° Southwest 159 183 5,900  Level FlightAware ADS-B
Wed 12:38:22 PM 33.7230 -112.0160 201° Southwest 155 178 5,900  Level FlightAware ADS-B
Wed 12:38:52 PM 33.7030 -112.0250 201° Southwest 153 176 5,900  Level FlightAware ADS-B
Wed 12:39:22 PM 33.6830 -112.0320 196° South 150 173 5,900  Level FlightAware ADS-B
Wed 12:39:47 PM 33.6650 -112.0320 180° South 150 173 5,900  Level FlightAware ADS-B
Wed 12:40:17 PM 33.6440 -112.0320 180° South 150 173 5,900  Level FlightAware ADS-B
Wed 12:40:42 PM 33.6280 -112.0320 180° South 151 174 5,900  Level FlightAware ADS-B
Wed 12:40:57 PM 33.6160 -112.0320 180° South 150 173 5,900  Level FlightAware ADS-B
Wed 12:41:27 PM 33.5970 -112.0320 180° South 149 171 5,900  Level FlightAware ADS-B
Wed 12:41:57 PM 33.5750 -112.0320 180° South 148 170 5,900  Level FlightAware ADS-B
Wed 12:42:22 PM 33.5590 -112.0330 183° South 149 171 5,900  Level FlightAware ADS-B
Wed 12:42:52 PM 33.5370 -112.0330 180° South 149 171 5,900  Level FlightAware ADS-B
Wed 12:43:17 PM 33.5200 -112.0340 183° South 148 170 5,900  Level FlightAware ADS-B
Wed 12:43:47 PM 33.5000 -112.0340 180° South 147 169 5,900  Level FlightAware ADS-B
Wed 12:44:12 PM 33.4830 -112.0340 180° South 147 169 5,900  Level FlightAware ADS-B
Wed 12:44:42 PM 33.4620 -112.0350 182° South 146 168 5,900  Level FlightAware ADS-B
Wed 12:44:57 PM 33.4520 -112.0350 180° South 145 167 5,900  Level FlightAware ADS-B
Wed 12:45:22 PM 33.4360 -112.0350 180° South 144 166 5,900 -218 Level FlightAware ADS-B
Wed 12:45:52 PM 33.4160 -112.0360 182° South 164 189 5,700 -700 Descending FlightAware ADS-B
Wed 12:46:22 PM 33.3900 -112.0370 182° South 174 200 5,200 -764 Descending FlightAware ADS-B
Wed 12:46:47 PM 33.3690 -112.0380 182° South 173 199 5,000 -300 Descending FlightAware ADS-B
Wed 12:47:02 PM 33.3600 -112.0470 220° Southwest 174 200 5,000 -200 Level FlightAware ADS-B
Wed 12:47:17 PM 33.3580 -112.0610 260° West 173 199 4,900 -750 Descending FlightAware ADS-B
Wed 12:47:42 PM 33.3590 -112.0850 273° West 181 208 4,500 -750 Descending FlightAware ADS-B
Wed 12:47:57 PM 33.3610 -112.1010 279° West 183 211 4,400 -533 Descending FlightAware ADS-B
Wed 12:48:27 PM 33.3700 -112.1280 292° West 177 204 4,100 -533 Descending FlightAware ADS-B
Wed 12:48:42 PM 33.3770 -112.1380 310° West 168 193 4,000 -240 Descending FlightAware ADS-B
Wed 12:48:52 PM 33.3840 -112.1410 340° North 165 190 4,000 -600 Level FlightAware ADS-B
Wed 12:49:22 PM 33.3970 -112.1370 14° North 171 197 3,600 -800 Descending FlightAware ADS-B

Login

Don't have an account? Register now (free) for customized features, flight alerts, and more!